Time;durP1;ratioP1;P1;durP2;ratioP2;P2;SDS_P1;SDS_P2;PMS_P1;PMS_P2;Temp;Humidity;BMP_temperature;BMP_pressure;BME280_temperature;BME280_humidity;BME280_pressure;Samples;Min_cycle;Max_cycle;Signal;HPM_P1;HPM_P2
2022/01/05 00:01:42;;;;;;;5.83;5.27;;;6.30;99.90;;;7.01;100.00;-19965.47;5012779;28;20591;-64
2022/01/05 00:04:10;;;;;;;7.33;5.50;;;6.30;99.90;;;6.95;100.00;-19963.56;5012831;28;20199;-64
2022/01/05 00:06:38;;;;;;;7.10;5.10;;;6.30;99.90;;;6.91;100.00;-19962.22;5008601;28;20282;-64
2022/01/05 00:09:07;;;;;;;9.03;5.83;;;6.20;99.90;;;6.95;100.00;-19963.56;5001719;28;20265;-63
2022/01/05 00:11:38;;;;;;;7.27;6.03;;;6.20;99.90;;;6.90;100.00;-19961.88;5012753;28;20640;-64
2022/01/05 00:14:07;;;;;;;8.80;7.00;;;6.20;99.90;;;6.95;100.00;-19963.41;5012420;28;20261;-64
2022/01/05 00:16:35;;;;;;;7.83;6.70;;;6.20;99.90;;;7.00;100.00;-19965.28;5011816;28;20777;-63
2022/01/05 00:19:04;;;;;;;9.43;7.50;;;6.30;99.90;;;6.92;100.00;-19962.56;5013290;28;20266;-63
2022/01/05 00:21:32;;;;;;;10.67;7.87;;;6.30;99.90;;;6.97;100.00;-19964.25;5012052;28;20219;-63
2022/01/05 00:24:00;;;;;;;9.77;7.10;;;6.30;99.90;;;6.94;100.00;-19963.25;5012418;28;20221;-63
2022/01/05 00:26:28;;;;;;;10.93;7.47;;;6.30;99.90;;;6.99;100.00;-19964.94;5013176;28;20292;-65
2022/01/05 00:28:57;;;;;;;10.87;7.70;;;6.30;99.90;;;7.04;100.00;-19966.47;5012743;28;20256;-63
2022/01/05 00:31:25;;;;;;;9.90;7.70;;;6.30;99.90;;;7.02;100.00;-19965.97;5012383;28;20285;-64
2022/01/05 00:33:54;;;;;;;9.63;7.70;;;6.30;99.90;;;6.98;100.00;-19964.59;5012879;28;20694;-64
2022/01/05 00:36:23;;;;;;;10.27;8.23;;;6.30;99.90;;;7.04;100.00;-19966.47;5012134;28;20326;-63
2022/01/05 00:38:51;;;;;;;9.70;7.43;;;6.30;99.90;;;7.15;100.00;-19970.41;5012721;28;20317;-63
2022/01/05 00:41:19;;;;;;;9.63;7.30;;;6.30;99.90;;;7.02;100.00;-19965.97;5011693;28;20263;-64
2022/01/05 00:43:48;;;;;;;10.47;7.60;;;6.30;99.90;;;7.25;100.00;-19973.84;5012126;28;20226;-64
2022/01/05 00:46:16;;;;;;;9.80;7.43;;;6.30;99.90;;;7.26;100.00;-19974.00;5012138;28;20242;-63
2022/01/05 00:48:44;;;;;;;9.93;6.43;;;6.30;99.90;;;7.21;100.00;-19972.47;5012681;28;20654;-64
2022/01/05 00:51:14;;;;;;;8.70;7.00;;;6.30;99.90;;;7.09;100.00;-19968.38;5011656;28;20230;-63
2022/01/05 00:53:44;;;;;;;9.07;6.80;;;6.30;99.90;;;7.03;100.00;-19966.31;5011687;28;20313;-62
2022/01/05 00:56:12;;;;;;;7.83;6.30;;;6.30;99.90;;;6.96;100.00;-19963.75;4996378;28;20306;-63
2022/01/05 00:58:40;;;;;;;9.43;6.40;;;6.30;99.90;;;7.02;100.00;-19965.97;4992056;28;20238;-64
2022/01/05 01:01:08;;;;;;;8.17;5.87;;;6.30;99.90;;;7.13;100.00;-19969.56;4992063;28;20310;-65
2022/01/05 01:03:39;;;;;;;7.00;5.27;;;6.30;99.90;;;7.08;100.00;-19967.84;5005815;28;20203;-64
2022/01/05 01:06:07;;;;;;;7.47;5.60;;;6.30;99.90;;;7.09;100.00;-19968.19;5011432;28;20227;-64
2022/01/05 01:08:35;;;;;;;7.10;5.87;;;6.30;99.90;;;7.25;100.00;-19973.84;5011560;28;20304;-63
2022/01/05 01:11:05;;;;;;;7.20;5.87;;;6.30;99.90;;;7.08;100.00;-19968.03;5011440;28;20641;-62
2022/01/05 01:13:33;;;;;;;6.53;5.00;;;6.30;99.90;;;7.15;100.00;-19970.41;5011205;28;20305;-63
2022/01/05 01:16:01;;;;;;;7.97;5.63;;;6.30;99.90;;;7.03;100.00;-19966.16;5011790;28;20233;-64
2022/01/05 01:18:30;;;;;;;5.60;4.80;;;6.30;99.90;;;6.98;100.00;-19964.59;5011317;28;20238;-63
2022/01/05 01:20:58;;;;;;;6.40;4.80;;;6.30;99.90;;;6.91;100.00;-19962.22;5011276;28;20706;-64
2022/01/05 01:23:27;;;;;;;6.97;4.50;;;6.20;99.90;;;6.83;100.00;-19959.47;5011393;28;20223;-64
2022/01/05 01:25:55;;;;;;;5.67;4.97;;;6.20;99.90;;;6.84;100.00;-19959.81;5011581;28;20309;-64
2022/01/05 01:28:24;;;;;;;6.90;5.47;;;6.20;99.90;;;6.83;100.00;-19959.47;5011563;28;20289;-63
2022/01/05 01:30:52;;;;;;;6.83;4.83;;;6.10;99.90;;;6.88;100.00;-19961.00;5011687;28;20661;-63
2022/01/05 01:33:21;;;;;;;6.53;4.77;;;6.10;99.90;;;6.87;100.00;-19960.84;5011070;28;20227;-64
2022/01/05 01:35:50;;;;;;;5.47;4.70;;;6.10;99.90;;;6.94;100.00;-19963.25;5011351;28;20650;-63
2022/01/05 01:38:18;;;;;;;5.30;4.00;;;6.10;99.90;;;6.96;100.00;-19963.91;5011413;28;20249;-64
2022/01/05 01:40:46;;;;;;;6.10;3.80;;;6.10;99.90;;;6.88;100.00;-19961.00;5011579;28;20246;-64
2022/01/05 01:43:15;;;;;;;5.03;4.00;;;6.10;99.90;;;6.83;100.00;-19959.31;5006131;28;20222;-64
2022/01/05 01:45:44;;;;;;;4.73;3.77;;;6.10;99.90;;;6.94;100.00;-19963.25;4992279;28;20294;-64
2022/01/05 01:48:13;;;;;;;5.93;3.57;;;6.10;99.90;;;6.89;100.00;-19961.53;5001876;28;20321;-63
2022/01/05 01:50:41;;;;;;;4.67;3.77;;;6.10;99.90;;;6.96;100.00;-19963.91;5011207;28;20305;-64
2022/01/05 01:53:09;;;;;;;5.40;3.43;;;6.10;99.90;;;6.93;100.00;-19962.72;5010917;28;20317;-63
2022/01/05 01:55:37;;;;;;;4.43;3.47;;;6.20;99.90;;;6.95;100.00;-19963.56;5000691;28;20250;-63
2022/01/05 01:58:06;;;;;;;4.60;3.53;;;6.20;99.90;;;6.83;100.00;-19959.31;4992164;28;20286;-63
2022/01/05 02:00:35;;;;;;;4.87;3.80;;;6.20;99.90;;;6.77;100.00;-19957.25;5010730;28;20238;-63
2022/01/05 02:03:06;;;;;;;5.43;4.23;;;6.10;99.90;;;6.93;100.00;-19962.72;5011018;28;20706;-63
2022/01/05 02:05:34;;;;;;;8.43;5.23;;;6.10;99.90;;;6.87;100.00;-19960.66;5010807;28;20775;-63
2022/01/05 02:08:02;;;;;;;6.33;5.23;;;6.10;99.90;;;6.94;100.00;-19963.25;5011401;28;20272;-63
2022/01/05 02:10:31;;;;;;;6.73;5.13;;;6.10;99.90;;;6.92;100.00;-19962.56;5011669;28;20257;-62
2022/01/05 02:13:00;;;;;;;4.30;3.87;;;6.10;99.90;;;7.05;100.00;-19966.81;5012173;28;20298;-62
2022/01/05 02:15:28;;;;;;;3.73;3.33;;;6.10;99.90;;;6.92;100.00;-19962.56;5010802;28;20350;-62
2022/01/05 02:18:08;;;;;;;4.10;3.40;;;6.10;99.90;;;6.86;100.00;-19960.34;5010688;28;20707;-62
2022/01/05 02:20:38;;;;;;;4.10;3.33;;;6.10;99.90;;;6.90;100.00;-19961.88;5010625;28;20233;-62
2022/01/05 02:23:07;;;;;;;4.73;4.30;;;6.10;99.90;;;7.07;100.00;-19967.50;5010622;28;20230;-61
2022/01/05 02:25:35;;;;;;;6.03;4.13;;;6.10;99.90;;;7.04;100.00;-19966.66;5010981;28;20250;-61
2022/01/05 02:28:04;;;;;;;5.73;4.30;;;6.20;99.90;;;6.65;100.00;-19953.31;5011066;28;20226;-61
2022/01/05 02:30:33;;;;;;;6.80;4.30;;;5.90;99.90;;;6.44;100.00;-19946.16;5010666;28;20230;-61
2022/01/05 02:33:01;;;;;;;6.03;4.10;;;5.70;99.90;;;6.21;100.00;-19938.28;5010493;28;20257;-60
2022/01/05 02:35:29;;;;;;;7.43;4.43;;;5.50;99.90;;;5.98;100.00;-19930.44;5010450;28;20230;-60
2022/01/05 02:37:57;;;;;;;6.43;3.40;;;5.40;99.90;;;5.98;100.00;-19930.44;5010532;28;20229;-61
2022/01/05 02:40:27;;;;;;;5.87;3.43;;;5.20;99.90;;;5.81;100.00;-19924.59;5011786;28;20236;-61
2022/01/05 02:42:57;;;;;;;5.03;3.53;;;5.10;99.90;;;5.80;100.00;-19924.44;5011946;28;20296;-62
2022/01/05 02:45:26;;;;;;;7.73;3.40;;;5.00;99.90;;;5.70;100.00;-19921.03;5012117;28;20653;-61
2022/01/05 02:47:55;;;;;;;4.53;2.90;;;5.00;99.90;;;5.38;100.00;-19909.91;5014055;28;20288;-62
2022/01/05 02:50:23;;;;;;;5.30;3.13;;;4.80;99.90;;;5.51;100.00;-19914.34;5014000;28;20284;-61
2022/01/05 02:52:52;;;;;;;2.70;1.87;;;4.70;99.90;;;5.33;100.00;-19908.38;5014030;28;20875;-61
2022/01/05 02:55:20;;;;;;;3.93;1.70;;;4.60;99.90;;;5.13;100.00;-19901.53;5012427;28;20241;-61
2022/01/05 02:57:49;;;;;;;5.33;1.40;;;4.40;99.90;;;4.98;100.00;-19896.59;5014744;28;20212;-61
2022/01/05 03:00:18;;;;;;;3.10;1.40;;;4.30;99.90;;;4.92;100.00;-19894.53;5013590;28;20234;-62
2022/01/05 03:02:46;;;;;;;4.03;1.57;;;4.20;99.90;;;4.89;100.00;-19893.50;5013711;28;20313;-61
2022/01/05 03:05:14;;;;;;;3.20;1.20;;;4.10;99.90;;;4.83;100.00;-19891.44;5013558;28;20274;-61
2022/01/05 03:07:42;;;;;;;3.23;1.37;;;4.00;99.90;;;4.79;100.00;-19889.91;5014000;28;20235;-62
2022/01/05 03:10:13;;;;;;;3.30;1.37;;;4.00;99.90;;;4.58;100.00;-19882.75;5013754;28;20690;-61
2022/01/05 03:12:45;;;;;;;7.17;2.30;;;3.90;99.90;;;4.52;100.00;-19880.84;5014386;28;20270;-61
2022/01/05 03:15:15;;;;;;;3.57;1.90;;;3.80;99.90;;;4.50;100.00;-19880.16;5013084;28;20228;-61
2022/01/05 03:17:44;;;;;;;2.57;1.73;;;3.70;99.90;;;4.39;100.00;-19876.41;5013630;28;20321;-61
2022/01/05 03:20:14;;;;;;;5.53;2.33;;;3.60;99.90;;;4.36;100.00;-19875.38;5013399;28;20665;-61
2022/01/05 03:22:42;;;;;;;6.37;2.50;;;3.60;99.90;;;4.36;100.00;-19875.38;5013778;28;20315;-60
2022/01/05 03:25:16;;;;;;;5.30;2.33;;;3.60;99.90;;;4.31;100.00;-19873.66;5013280;28;20289;-61
2022/01/05 03:27:46;;;;;;;3.17;2.30;;;3.50;99.90;;;4.20;100.00;-19869.91;5013912;28;20190;-62
2022/01/05 03:30:19;;;;;;;5.00;2.57;;;3.50;99.90;;;4.25;100.00;-19871.63;5012987;28;20224;-61
2022/01/05 03:33:07;;;;;;;6.87;2.80;;;3.50;99.90;;;4.30;100.00;-19873.34;5013337;28;20320;-61
2022/01/05 03:35:39;;;;;;;6.30;2.50;;;3.50;99.90;;;4.28;100.00;-19872.47;5012976;28;20274;-62
2022/01/05 03:38:08;;;;;;;4.83;2.97;;;3.50;99.90;;;4.19;100.00;-19869.41;5013157;28;20256;-62
2022/01/05 03:40:38;;;;;;;5.17;2.67;;;3.50;99.90;;;4.26;100.00;-19871.97;5012710;28;20246;-61
2022/01/05 03:43:08;;;;;;;3.63;2.47;;;3.40;99.90;;;4.20;100.00;-19869.91;5013648;28;20287;-61
2022/01/05 03:45:38;;;;;;;3.37;2.50;;;3.40;99.90;;;4.16;100.00;-19868.38;5013240;28;20291;-61
2022/01/05 03:48:10;;;;;;;4.33;2.70;;;3.40;99.90;;;4.11;100.00;-19866.66;5012881;28;20313;-62
2022/01/05 03:50:38;;;;;;;6.83;3.07;;;3.40;99.90;;;4.33;100.00;-19874.34;5012628;28;20579;-61
2022/01/05 03:53:10;;;;;;;5.83;3.20;;;3.40;99.90;;;4.14;100.00;-19867.69;5011811;28;20231;-61
2022/01/05 03:55:41;;;;;;;6.03;3.17;;;3.40;99.90;;;4.10;100.00;-19866.31;5012351;28;20229;-62
2022/01/05 03:58:10;;;;;;;5.97;3.07;;;3.40;99.90;;;4.12;100.00;-19867.19;5012878;28;20182;-62
2022/01/05 04:00:44;;;;;;;4.23;3.03;;;3.30;99.90;;;3.97;100.00;-19862.06;5012770;28;20261;-61
2022/01/05 04:03:13;;;;;;;5.73;3.50;;;3.30;99.90;;;4.05;100.00;-19864.78;5012514;28;20735;-61
2022/01/05 04:05:41;;;;;;;5.53;3.47;;;3.20;99.90;;;4.05;100.00;-19864.78;5012192;28;20227;-62
2022/01/05 04:08:10;;;;;;;5.57;3.60;;;3.20;99.90;;;3.78;100.00;-19855.38;5012408;28;20232;-61
2022/01/05 04:10:39;;;;;;;6.17;3.83;;;3.10;99.90;;;3.97;100.00;-19862.06;5012554;28;20257;-62
2022/01/05 04:13:07;;;;;;;6.97;3.87;;;3.20;99.90;;;3.83;100.00;-19857.25;5013070;28;20295;-62
2022/01/05 04:15:35;;;;;;;5.17;3.50;;;3.10;99.90;;;3.99;100.00;-19862.72;5012394;28;20221;-63
2022/01/05 04:18:05;;;;;;;8.93;3.83;;;3.10;99.90;;;4.13;100.00;-19867.34;5012552;28;20325;-64
2022/01/05 04:20:34;;;;;;;4.77;3.67;;;3.20;99.90;;;4.06;100.00;-19865.13;5012253;28;20248;-64
2022/01/05 04:23:02;;;;;;;5.97;4.03;;;3.30;99.90;;;3.94;100.00;-19860.84;5012578;28;20282;-64
2022/01/05 04:25:30;;;;;;;7.00;3.80;;;3.30;99.90;;;4.28;100.00;-19872.66;5012029;28;20692;-63
2022/01/05 04:27:58;;;;;;;5.77;3.93;;;3.30;99.90;;;4.10;100.00;-19866.50;5012571;28;20801;-63
2022/01/05 04:30:27;;;;;;;5.57;3.90;;;3.30;99.90;;;4.02;100.00;-19863.59;5012145;28;20289;-63
2022/01/05 04:32:55;;;;;;;4.77;3.60;;;3.30;99.90;;;3.99;100.00;-19862.56;5012196;28;20410;-63
2022/01/05 04:35:44;;;;;;;4.73;3.70;;;3.30;99.90;;;4.11;100.00;-19866.84;5011630;28;20698;-63
2022/01/05 04:38:12;;;;;;;4.13;3.50;;;3.30;99.90;;;3.96;100.00;-19861.53;4992552;28;20630;-64
2022/01/05 04:40:40;;;;;;;6.83;3.80;;;3.30;99.90;;;3.96;100.00;-19861.72;4992227;28;20334;-62
2022/01/05 04:43:08;;;;;;;5.63;3.70;;;3.30;99.90;;;4.07;100.00;-19865.31;4996854;28;20272;-64
2022/01/05 04:45:36;;;;;;;6.77;3.93;;;3.30;99.90;;;4.15;100.00;-19868.22;5012359;28;20256;-63
2022/01/05 04:48:05;;;;;;;7.10;4.00;;;3.40;99.90;;;4.00;100.00;-19862.91;5012093;28;20286;-64
2022/01/05 04:50:33;;;;;;;6.43;3.77;;;3.30;99.90;;;4.19;100.00;-19869.41;5011472;28;20313;-64
2022/01/05 04:53:03;;;;;;;4.77;3.53;;;3.40;99.90;;;3.99;100.00;-19862.72;5012424;28;20229;-64
2022/01/05 04:55:31;;;;;;;5.13;3.23;;;3.30;99.90;;;4.13;100.00;-19867.34;5011535;28;20599;-63
2022/01/05 04:57:59;;;;;;;4.07;3.30;;;3.30;99.90;;;3.89;100.00;-19859.31;5012491;28;20260;-64
2022/01/05 05:00:27;;;;;;;3.87;3.00;;;3.20;99.90;;;3.65;100.00;-19851.13;5011314;28;20250;-63
2022/01/05 05:02:56;;;;;;;4.87;2.80;;;3.00;99.90;;;3.63;100.00;-19850.44;5011408;28;20230;-63
2022/01/05 05:05:24;;;;;;;4.20;3.10;;;2.90;99.90;;;3.54;100.00;-19847.53;5010803;28;20226;-63
2022/01/05 05:07:52;;;;;;;4.50;3.27;;;2.80;99.90;;;3.44;100.00;-19843.94;5011014;28;20320;-64
2022/01/05 05:10:22;;;;;;;3.73;2.63;;;2.70;99.90;;;3.35;100.00;-19840.84;5011139;28;20203;-64
2022/01/05 05:12:49;;;;;;;4.77;2.90;;;2.60;99.90;;;3.21;100.00;-19836.06;5012062;28;20200;-63
2022/01/05 05:15:18;;;;;;;4.33;2.70;;;2.50;99.90;;;3.37;100.00;-19841.72;5011544;28;20254;-63
2022/01/05 05:17:46;;;;;;;4.43;2.67;;;2.50;99.90;;;3.07;100.00;-19831.28;5011636;28;20244;-62
2022/01/05 05:20:14;;;;;;;5.13;2.77;;;2.40;99.90;;;3.01;100.00;-19829.41;5011720;28;20623;-64
2022/01/05 05:22:42;;;;;;;3.90;2.87;;;2.30;99.90;;;2.98;100.00;-19828.19;5011657;28;20228;-64
2022/01/05 05:25:11;;;;;;;5.53;2.60;;;2.30;99.90;;;2.74;100.00;-19820.16;5011377;28;20576;-65
2022/01/05 05:27:40;;;;;;;5.47;3.20;;;2.20;99.90;;;2.73;100.00;-19819.66;5011753;28;20202;-64
2022/01/05 05:30:28;;;;;;;5.90;4.03;;;2.20;99.90;;;2.85;100.00;-19823.94;5011248;28;20550;-64
2022/01/05 05:32:57;;;;;;;4.07;3.67;;;2.10;99.90;;;2.91;100.00;-19825.97;5010676;28;20309;-63
2022/01/05 05:35:27;;;;;;;4.73;4.03;;;2.20;99.90;;;2.95;100.00;-19827.19;5010502;28;20227;-63
2022/01/05 05:37:57;;;;;;;5.20;3.97;;;2.10;99.90;;;2.98;100.00;-19828.38;5010445;28;20262;-63
2022/01/05 05:40:25;;;;;;;4.43;3.00;;;2.10;99.90;;;2.86;100.00;-19824.28;5010478;28;20198;-64
2022/01/05 05:42:55;;;;;;;4.87;3.80;;;2.10;99.90;;;2.79;100.00;-19821.88;5011465;28;20207;-64
2022/01/05 05:45:23;;;;;;;5.30;3.40;;;2.20;99.90;;;2.89;100.00;-19825.13;5011042;28;20345;-64
2022/01/05 05:47:51;;;;;;;5.80;3.83;;;2.20;99.90;;;3.05;100.00;-19830.59;5011152;28;20379;-64
2022/01/05 05:50:20;;;;;;;6.07;4.10;;;2.20;99.90;;;3.23;100.00;-19836.75;5010828;28;20331;-63
2022/01/05 05:52:48;;;;;;;5.57;4.50;;;2.30;99.90;;;3.15;100.00;-19834.19;5011002;28;20226;-63
2022/01/05 05:55:16;;;;;;;3.77;3.47;;;2.40;99.90;;;2.87;100.00;-19824.44;5010787;28;20258;-64
2022/01/05 05:57:44;;;;;;;3.47;2.77;;;2.30;99.90;;;2.97;100.00;-19827.88;5011365;28;20242;-64
2022/01/05 06:00:15;;;;;;;3.27;2.63;;;2.20;99.90;;;2.97;100.00;-19828.03;5010909;28;20937;-64
2022/01/05 06:02:44;;;;;;;4.30;3.17;;;2.30;99.90;;;2.85;100.00;-19823.94;5011009;28;20313;-64
2022/01/05 06:05:13;;;;;;;3.30;3.00;;;2.20;99.90;;;2.93;100.00;-19826.66;5010660;28;20711;-64
2022/01/05 06:07:41;;;;;;;3.37;2.60;;;2.20;99.90;;;2.87;100.00;-19824.63;5011066;28;20309;-64
2022/01/05 06:10:10;;;;;;;6.80;4.13;;;2.10;99.90;;;2.95;100.00;-19827.19;5011245;28;20237;-64
2022/01/05 06:12:38;;;;;;;4.23;3.07;;;2.10;99.90;;;2.87;100.00;-19824.44;5011933;28;20289;-63
2022/01/05 06:15:07;;;;;;;5.27;2.77;;;2.10;99.90;;;2.88;100.00;-19824.78;5011736;28;20230;-64
2022/01/05 06:17:36;;;;;;;5.10;3.60;;;2.00;99.90;;;3.01;100.00;-19829.22;5014649;28;20329;-64
2022/01/05 06:20:07;;;;;;;4.30;3.50;;;2.10;99.90;;;2.91;100.00;-19825.81;5015090;28;20234;-64
2022/01/05 06:22:39;;;;;;;4.87;3.37;;;2.10;99.90;;;2.66;100.00;-19817.44;5014746;28;20227;-64
2022/01/05 06:25:10;;;;;;;3.27;2.97;;;2.00;99.90;;;2.65;100.00;-19816.91;5015191;28;20274;-64
2022/01/05 06:27:38;;;;;;;4.43;2.80;;;2.00;99.90;;;2.75;100.00;-19820.50;5015116;28;20235;-65
2022/01/05 06:30:09;;;;;;;4.07;2.90;;;2.00;99.90;;;2.83;100.00;-19823.25;5014566;28;20226;-64
2022/01/05 06:32:43;;;;;;;4.33;3.20;;;2.00;99.90;;;2.92;100.00;-19826.16;5014724;28;20289;-64
2022/01/05 06:35:12;;;;;;;3.93;2.93;;;2.00;99.90;;;2.71;100.00;-19818.97;5014617;28;20276;-65
2022/01/05 06:37:40;;;;;;;6.67;3.87;;;2.00;99.90;;;2.85;100.00;-19823.94;5014416;28;20226;-64
2022/01/05 06:40:09;;;;;;;5.40;4.23;;;2.00;99.90;;;2.76;100.00;-19820.69;5014619;28;20290;-65
2022/01/05 06:42:37;;;;;;;6.43;4.37;;;2.00;99.90;;;2.78;100.00;-19821.53;5014634;28;20242;-64
2022/01/05 06:45:07;;;;;;;6.07;3.93;;;2.00;99.90;;;2.90;100.00;-19825.47;4994698;28;20286;-64
2022/01/05 06:47:35;;;;;;;5.97;4.80;;;2.00;99.90;;;2.73;100.00;-19819.81;4994183;28;20699;-64
2022/01/05 06:50:05;;;;;;;5.87;4.57;;;2.00;99.90;;;2.58;100.00;-19814.69;4994542;28;20235;-64
2022/01/05 06:52:34;;;;;;;7.30;5.07;;;1.90;99.90;;;2.88;100.00;-19824.78;4994366;28;20310;-64
2022/01/05 06:55:02;;;;;;;6.50;5.17;;;2.00;99.90;;;2.79;100.00;-19821.88;4999676;28;20254;-64
2022/01/05 06:57:30;;;;;;;9.40;6.50;;;2.00;99.90;;;2.88;100.00;-19824.97;5013755;28;20250;-65
2022/01/05 06:59:58;;;;;;;9.43;6.50;;;2.00;99.90;;;2.74;100.00;-19820.00;5013973;28;20226;-64
2022/01/05 07:02:26;;;;;;;6.23;5.00;;;2.00;99.90;;;2.76;100.00;-19820.84;5013883;28;20268;-64
2022/01/05 07:04:54;;;;;;;6.73;3.83;;;2.00;99.90;;;2.83;100.00;-19823.06;5013667;28;20246;-63
2022/01/05 07:07:29;;;;;;;6.53;4.03;;;2.00;99.90;;;2.92;100.00;-19826.16;5013763;28;21760;-64
2022/01/05 07:09:57;;;;;;;4.57;3.13;;;2.00;99.90;;;3.05;100.00;-19830.78;5014489;28;20589;-64
2022/01/05 07:12:25;;;;;;;5.70;3.37;;;2.10;99.90;;;2.91;100.00;-19825.81;5013482;28;20223;-65
2022/01/05 07:14:53;;;;;;;4.13;2.57;;;2.10;99.90;;;2.91;100.00;-19825.97;5013802;28;20318;-64
2022/01/05 07:17:24;;;;;;;7.27;3.10;;;2.10;99.90;;;2.80;100.00;-19822.06;5013298;28;20240;-65
2022/01/05 07:19:51;;;;;;;7.27;3.47;;;2.10;99.90;;;2.90;100.00;-19825.47;5013491;28;20323;-63
2022/01/05 07:22:19;;;;;;;5.03;2.73;;;2.10;99.90;;;2.89;100.00;-19825.31;5013495;28;20566;-65
2022/01/05 07:24:50;;;;;;;7.10;2.87;;;2.10;99.90;;;2.95;100.00;-19827.34;5013857;28;20246;-65
2022/01/05 07:27:19;;;;;;;3.83;2.73;;;2.10;99.90;;;3.01;100.00;-19829.41;5013476;28;20769;-65
2022/01/05 07:29:47;;;;;;;7.73;3.90;;;2.10;99.90;;;2.96;100.00;-19827.53;5013447;28;20232;-64
2022/01/05 07:32:15;;;;;;;8.00;3.30;;;2.20;99.90;;;3.02;100.00;-19829.75;5013328;28;20233;-65
2022/01/05 07:34:43;;;;;;;7.70;4.20;;;2.20;99.90;;;2.94;100.00;-19826.84;5013571;28;20246;-66
2022/01/05 07:37:11;;;;;;;10.07;4.83;;;2.20;99.90;;;2.91;100.00;-19825.97;5013254;28;20222;-64
2022/01/05 07:39:40;;;;;;;6.43;4.40;;;2.20;99.90;;;2.99;100.00;-19828.53;5014260;28;20200;-64
2022/01/05 07:42:10;;;;;;;8.13;5.03;;;2.20;99.90;;;3.26;100.00;-19837.78;5013563;28;20237;-65
2022/01/05 07:44:38;;;;;;;6.37;4.77;;;2.30;99.90;;;3.19;100.00;-19835.38;4996858;28;20623;-64
2022/01/05 07:47:07;;;;;;;5.97;4.40;;;2.30;99.90;;;3.25;100.00;-19837.59;4993880;28;20265;-64
2022/01/05 07:49:37;;;;;;;6.10;4.67;;;2.30;99.90;;;3.14;100.00;-19833.84;4993450;28;20303;-63
2022/01/05 07:52:06;;;;;;;8.50;4.37;;;2.30;99.90;;;3.15;100.00;-19834.00;4993988;28;20205;-64
2022/01/05 07:54:36;;;;;;;6.20;4.00;;;2.30;99.90;;;2.98;100.00;-19828.19;4994614;28;20265;-64
2022/01/05 07:57:05;;;;;;;4.90;3.37;;;2.30;99.90;;;3.02;100.00;-19829.75;5013023;28;20233;-65
2022/01/05 07:59:35;;;;;;;6.90;3.47;;;2.20;99.90;;;2.95;100.00;-19827.34;5012908;28;20605;-65
2022/01/05 08:02:03;;;;;;;8.40;4.03;;;2.30;99.90;;;3.04;100.00;-19830.25;5013006;28;20313;-64
2022/01/05 08:04:32;;;;;;;8.23;4.47;;;2.30;99.90;;;3.14;100.00;-19833.84;5012789;28;20686;-64
2022/01/05 08:07:00;;;;;;;8.33;3.93;;;2.30;99.90;;;3.17;100.00;-19834.69;5013679;28;20203;-64
2022/01/05 08:09:29;;;;;;;7.43;3.90;;;2.30;99.90;;;3.19;100.00;-19835.38;5012444;28;20701;-63
2022/01/05 08:11:58;;;;;;;6.37;3.70;;;2.40;99.90;;;3.18;100.00;-19835.22;5012512;28;20306;-63
2022/01/05 08:14:26;;;;;;;6.50;3.47;;;2.40;99.90;;;3.32;100.00;-19839.81;5012588;28;20280;-63
2022/01/05 08:16:55;;;;;;;4.33;3.10;;;2.40;99.90;;;3.43;100.00;-19843.59;5012215;28;20228;-63
2022/01/05 08:19:23;;;;;;;4.73;3.20;;;2.50;99.90;;;3.35;100.00;-19840.84;5012152;28;20202;-63
2022/01/05 08:21:51;;;;;;;4.60;3.00;;;2.50;99.90;;;3.24;100.00;-19837.09;5012727;28;20290;-63
2022/01/05 08:24:19;;;;;;;5.13;2.83;;;2.50;99.90;;;3.32;100.00;-19839.81;5012254;28;20619;-64
2022/01/05 08:26:47;;;;;;;3.50;2.40;;;2.50;99.90;;;3.24;100.00;-19837.09;5012193;28;20305;-64
2022/01/05 08:29:15;;;;;;;4.57;2.43;;;2.50;99.90;;;3.33;100.00;-19840.19;5011999;28;20228;-64
2022/01/05 08:31:43;;;;;;;4.07;2.20;;;2.50;99.90;;;3.44;100.00;-19844.09;5012266;28;20231;-63
2022/01/05 08:34:13;;;;;;;5.47;2.03;;;2.50;99.90;;;3.41;100.00;-19843.09;5012061;28;20301;-64
2022/01/05 08:36:41;;;;;;;4.47;2.77;;;2.60;99.90;;;3.47;100.00;-19845.13;5012223;28;20708;-63
2022/01/05 08:39:09;;;;;;;5.10;2.80;;;2.60;99.90;;;3.47;100.00;-19845.13;5011433;28;20232;-64
2022/01/05 08:41:37;;;;;;;5.37;1.93;;;2.70;99.90;;;3.47;100.00;-19844.97;5010885;28;20311;-65
2022/01/05 08:44:05;;;;;;;4.83;2.80;;;2.70;99.90;;;3.40;100.00;-19842.56;4998916;28;20240;-64
2022/01/05 08:46:33;;;;;;;3.43;2.13;;;2.70;99.90;;;3.36;100.00;-19841.19;4992239;28;20238;-64
2022/01/05 08:49:02;;;;;;;4.73;2.53;;;2.70;99.90;;;3.42;100.00;-19843.25;4992891;28;20197;-64
2022/01/05 08:51:31;;;;;;;6.77;2.33;;;2.70;99.90;;;3.38;100.00;-19841.88;4992187;28;20233;-64
2022/01/05 08:53:59;;;;;;;4.13;2.20;;;2.70;99.90;;;3.46;100.00;-19844.78;4992065;28;20330;-65
2022/01/05 08:56:27;;;;;;;5.37;2.20;;;2.70;99.90;;;3.48;100.00;-19845.31;5009461;28;20563;-64
2022/01/05 08:58:55;;;;;;;5.13;2.50;;;2.70;99.90;;;3.32;100.00;-19840.00;5011783;28;20227;-64
2022/01/05 09:01:24;;;;;;;5.40;3.27;;;2.70;99.90;;;3.46;100.00;-19844.63;5011480;28;20394;-64
2022/01/05 09:03:53;;;;;;;3.50;2.50;;;2.70;99.90;;;3.45;100.00;-19844.28;5012833;28;20290;-64
2022/01/05 09:06:22;;;;;;;5.17;2.10;;;2.70;99.90;;;3.49;100.00;-19845.81;5011564;28;20743;-64
2022/01/05 09:08:51;;;;;;;6.07;2.80;;;2.70;99.90;;;3.35;100.00;-19841.03;5012031;28;20643;-65
2022/01/05 09:11:22;;;;;;;7.97;2.93;;;2.60;99.90;;;3.37;100.00;-19841.53;5009190;28;20227;-64
2022/01/05 09:13:50;;;;;;;5.50;2.50;;;2.70;99.90;;;3.34;100.00;-19840.69;5011910;28;20230;-63
2022/01/05 09:16:18;;;;;;;4.97;2.77;;;2.60;99.90;;;3.12;100.00;-19833.16;5011746;28;20208;-63
2022/01/05 09:18:47;;;;;;;7.37;2.70;;;2.50;99.90;;;3.45;100.00;-19844.44;5000730;28;20228;-63
2022/01/05 09:21:15;;;;;;;6.50;3.30;;;2.50;99.90;;;3.25;100.00;-19837.44;5011034;28;20227;-63
2022/01/05 09:23:44;;;;;;;5.80;3.00;;;2.50;99.90;;;3.17;100.00;-19834.88;5011409;28;20219;-64
2022/01/05 09:26:13;;;;;;;5.77;3.10;;;2.50;99.90;;;3.33;100.00;-19840.34;5011463;28;20318;-64
2022/01/05 09:28:44;;;;;;;7.27;3.67;;;2.50;99.90;;;3.29;100.00;-19838.81;5011007;28;20679;-65
2022/01/05 09:31:12;;;;;;;6.87;4.00;;;2.50;99.90;;;3.48;100.00;-19845.31;4996212;28;20187;-65
2022/01/05 09:33:40;;;;;;;6.47;3.30;;;2.70;99.90;;;3.64;100.00;-19850.78;5011803;28;20248;-65
2022/01/05 09:36:14;;;;;;;7.13;3.43;;;2.80;99.90;;;3.81;100.00;-19856.41;5011113;28;20227;-64
2022/01/05 09:44:15;;;;;;;8.20;3.80;;;3.20;99.90;;;4.11;100.00;-19866.66;5011391;28;20281;-63
2022/01/05 09:47:08;;;;;;;7.50;3.93;;;3.30;99.90;;;4.11;100.00;-19866.66;5010958;28;20222;-63
2022/01/05 09:49:39;;;;;;;5.40;3.40;;;3.30;99.90;;;4.21;100.00;-19870.25;5011229;28;20223;-64
2022/01/05 09:52:10;;;;;;;6.23;3.53;;;3.40;99.90;;;4.51;100.00;-19880.34;5015425;28;20246;-63
2022/01/05 09:54:42;;;;;;;4.20;3.07;;;3.60;99.90;;;4.46;100.00;-19878.63;5015120;28;20660;-63
2022/01/05 09:57:14;;;;;;;8.87;3.70;;;3.60;99.90;;;4.47;100.00;-19879.16;5015373;28;20690;-65
2022/01/05 09:59:44;;;;;;;6.10;2.87;;;3.70;99.90;;;4.73;100.00;-19888.03;5015518;28;20252;-63
2022/01/05 10:02:15;;;;;;;6.30;3.30;;;3.80;99.90;;;4.95;100.00;-19895.38;5015037;28;20249;-64
2022/01/05 10:04:46;;;;;;;4.13;2.80;;;3.90;99.90;;;4.78;100.00;-19889.75;5015356;28;20220;-65
2022/01/05 10:07:15;;;;;;;5.60;3.47;;;3.90;99.90;;;4.70;100.00;-19887.00;5014950;28;20187;-65
2022/01/05 10:09:45;;;;;;;6.60;2.90;;;3.90;99.90;;;4.83;100.00;-19891.44;5015866;28;20198;-64
2022/01/05 10:12:15;;;;;;;6.70;2.90;;;3.90;99.90;;;4.80;100.00;-19890.41;5015039;28;20225;-64
2022/01/05 10:14:45;;;;;;;6.03;3.50;;;3.90;99.90;;;4.78;100.00;-19889.75;5014661;28;20257;-64
2022/01/05 10:17:15;;;;;;;9.27;3.43;;;4.00;99.90;;;4.73;100.00;-19888.03;5014714;28;20223;-64
2022/01/05 10:19:45;;;;;;;6.77;2.73;;;4.00;99.90;;;4.96;100.00;-19895.91;5014695;28;20237;-65
2022/01/05 10:22:35;;;;;;;5.70;2.53;;;4.10;99.90;;;5.02;100.00;-19897.59;5014178;28;20193;-65
2022/01/05 10:25:06;;;;;;;4.33;2.70;;;4.10;99.90;;;4.96;100.00;-19895.72;5011392;28;20577;-63
2022/01/05 10:27:36;;;;;;;7.53;2.60;;;4.10;99.90;;;5.02;100.00;-19897.59;5002805;28;20291;-65
2022/01/05 10:30:11;;;;;;;5.37;4.53;;;4.20;99.90;;;5.00;100.00;-19897.09;5014622;28;20745;-64
2022/01/05 10:32:39;;;;;;;5.53;3.53;;;4.10;99.90;;;4.98;100.00;-19896.59;5013834;28;20221;-64
2022/01/05 10:35:11;;;;;;;5.70;2.97;;;4.20;99.90;;;5.11;100.00;-19900.69;5013304;28;20230;-64